Time;durP1;ratioP1;P1;durP2;ratioP2;P2;SDS_P1;SDS_P2;PMS_P1;PMS_P2;Temp;Humidity;BMP_temperature;BMP_pressure;BME280_temperature;BME280_humidity;BME280_pressure;Samples;Min_cycle;Max_cycle;Signal;HPM_P1;HPM_P2
2022/07/06 00:01:50;;;;;;;3.40;3.20;;;20.00;88.40;;;;;;5071591;28;20209;-78
2022/07/06 00:04:17;;;;;;;3.57;3.37;;;19.90;90.10;;;;;;5037958;28;20188;-72
2022/07/06 00:06:43;;;;;;;3.63;3.40;;;19.90;88.10;;;;;;5067526;28;20434;-73
2022/07/06 00:09:09;;;;;;;3.57;3.30;;;19.90;89.10;;;;;;5032995;28;20522;-73
2022/07/06 00:11:34;;;;;;;2.97;2.60;;;19.80;91.30;;;;;;5018142;28;20547;-72
2022/07/06 00:14:00;;;;;;;5.43;3.27;;;19.80;91.40;;;;;;5033718;28;20169;-73
2022/07/06 00:16:26;;;;;;;5.03;3.60;;;19.80;91.00;;;;;;5041072;28;20185;-72
2022/07/06 00:18:52;;;;;;;3.67;3.37;;;19.70;92.30;;;;;;5052577;28;20423;-72
2022/07/06 00:21:18;;;;;;;3.50;3.20;;;19.70;90.80;;;;;;5072048;28;20224;-72
2022/07/06 00:23:43;;;;;;;3.17;2.90;;;19.60;90.30;;;;;;5071569;28;20192;-72
2022/07/06 00:26:09;;;;;;;3.53;3.10;;;19.60;90.20;;;;;;5070354;28;20181;-72
2022/07/06 00:28:35;;;;;;;4.20;3.27;;;19.60;90.10;;;;;;5072607;28;20244;-72
2022/07/06 00:31:01;;;;;;;3.50;3.20;;;19.50;91.60;;;;;;5071870;28;20412;-72
2022/07/06 00:33:27;;;;;;;3.80;3.50;;;19.40;93.80;;;;;;5054767;28;20229;-72
2022/07/06 00:35:53;;;;;;;3.57;3.20;;;19.40;94.20;;;;;;5051920;28;20466;-73
2022/07/06 00:38:18;;;;;;;3.70;3.40;;;19.40;95.90;;;;;;5056602;28;20220;-72
2022/07/06 00:40:44;;;;;;;3.93;3.10;;;19.40;96.40;;;;;;5033896;28;20306;-72
2022/07/06 00:43:10;;;;;;;3.77;3.47;;;19.40;94.90;;;;;;5038538;28;20456;-73
2022/07/06 00:45:36;;;;;;;4.10;3.80;;;19.40;93.70;;;;;;5070709;28;20173;-73
2022/07/06 00:48:02;;;;;;;3.30;3.00;;;19.50;93.30;;;;;;5053916;28;20426;-72
2022/07/06 00:50:28;;;;;;;3.50;3.30;;;19.60;93.60;;;;;;5072779;28;20180;-72
2022/07/06 00:53:03;;;;;;;3.80;3.50;;;19.60;92.80;;;;;;5071764;28;20189;-73
2022/07/06 00:55:31;;;;;;;3.30;3.10;;;19.60;93.70;;;;;;5072666;28;20411;-73
2022/07/06 00:57:57;;;;;;;4.30;3.90;;;19.60;93.60;;;;;;5070831;28;20431;-73
2022/07/06 01:00:25;;;;;;;4.00;3.70;;;19.60;93.20;;;;;;5054337;28;20406;-72
2022/07/06 01:02:52;;;;;;;3.80;3.47;;;19.50;92.40;;;;;;5071558;28;20496;-79
2022/07/06 01:05:18;;;;;;;3.37;3.10;;;19.40;91.60;;;;;;5071624;28;20477;-72
2022/07/06 01:07:45;;;;;;;3.80;3.40;;;19.40;93.70;;;;;;5056518;28;20424;-72
2022/07/06 01:10:12;;;;;;;3.70;3.50;;;19.40;92.00;;;;;;5040971;28;20438;-73
2022/07/06 01:12:40;;;;;;;3.60;3.40;;;19.40;93.30;;;;;;5067330;28;20499;-73
2022/07/06 01:15:14;;;;;;;4.30;3.90;;;19.40;93.70;;;;;;5070461;28;20427;-73
2022/07/06 01:17:41;;;;;;;3.77;3.10;;;19.40;92.70;;;;;;5033443;28;20428;-72
2022/07/06 01:20:11;;;;;;;3.10;2.90;;;19.40;91.00;;;;;;5051166;28;20939;-73
2022/07/06 01:22:38;;;;;;;3.40;3.17;;;19.40;92.40;;;;;;5034050;28;20522;-72
2022/07/06 01:25:05;;;;;;;2.90;2.80;;;19.30;91.60;;;;;;5051448;28;20396;-73
2022/07/06 01:27:31;;;;;;;3.30;2.80;;;19.30;91.70;;;;;;5050887;28;20977;-72
2022/07/06 01:29:56;;;;;;;3.50;3.23;;;19.30;91.90;;;;;;5051048;28;20408;-73
2022/07/06 01:32:22;;;;;;;3.37;2.90;;;19.20;92.00;;;;;;5051910;28;20186;-72
2022/07/06 01:34:48;;;;;;;3.27;3.00;;;19.20;91.10;;;;;;5051944;28;20263;-73
2022/07/06 01:37:13;;;;;;;3.00;2.80;;;19.10;91.30;;;;;;5049173;28;20186;-73
2022/07/06 01:39:39;;;;;;;4.93;2.80;;;19.10;91.50;;;;;;5033955;28;20178;-72
2022/07/06 01:42:05;;;;;;;4.20;3.27;;;19.00;90.70;;;;;;5051164;28;20205;-72
2022/07/06 01:44:31;;;;;;;3.53;3.23;;;18.90;91.60;;;;;;5034161;28;20185;-72
2022/07/06 01:46:57;;;;;;;3.43;3.23;;;18.90;90.70;;;;;;5036079;28;20427;-72
2022/07/06 01:49:22;;;;;;;5.23;4.00;;;18.80;92.20;;;;;;5054795;28;20646;-72
2022/07/06 01:51:48;;;;;;;3.20;3.00;;;18.80;90.90;;;;;;5037060;28;20196;-72
2022/07/06 01:54:14;;;;;;;3.43;3.23;;;18.70;93.50;;;;;;5054106;28;20181;-72
2022/07/06 01:56:39;;;;;;;3.53;3.23;;;18.70;92.50;;;;;;5053752;28;20174;-72
2022/07/06 01:59:05;;;;;;;4.10;3.90;;;18.70;93.60;;;;;;5053285;28;20646;-72
2022/07/06 02:01:32;;;;;;;3.80;3.60;;;18.60;92.60;;;;;;5019781;28;20577;-72
2022/07/06 02:03:57;;;;;;;6.33;3.03;;;18.60;92.20;;;;;;5053894;28;20904;-73
2022/07/06 02:06:23;;;;;;;3.60;3.20;;;18.60;91.60;;;;;;5052708;28;20196;-72
2022/07/06 02:08:51;;;;;;;3.60;3.33;;;18.60;92.50;;;;;;5036585;28;20165;-72
2022/07/06 02:11:17;;;;;;;3.50;3.30;;;18.60;92.30;;;;;;5053877;28;20487;-72
2022/07/06 02:13:43;;;;;;;4.10;3.80;;;18.60;91.20;;;;;;5053340;28;20921;-72
2022/07/06 02:16:08;;;;;;;4.47;3.60;;;18.60;90.90;;;;;;5051142;28;20198;-72
2022/07/06 02:18:34;;;;;;;5.53;3.70;;;18.60;90.90;;;;;;5054518;28;20186;-72
2022/07/06 02:21:00;;;;;;;4.07;3.87;;;18.60;91.20;;;;;;5053330;28;20221;-73
2022/07/06 02:23:26;;;;;;;3.87;3.67;;;18.60;91.60;;;;;;5036226;28;20173;-72
2022/07/06 02:25:52;;;;;;;4.73;4.33;;;18.60;92.00;;;;;;5053385;28;20669;-74
2022/07/06 02:28:17;;;;;;;4.20;3.97;;;18.60;92.10;;;;;;5035587;28;20644;-73
2022/07/06 02:30:43;;;;;;;3.83;3.40;;;18.60;92.10;;;;;;5019503;28;20507;-72
2022/07/06 02:33:09;;;;;;;4.73;4.20;;;18.60;92.10;;;;;;5053428;28;20269;-72
2022/07/06 02:35:35;;;;;;;4.73;4.20;;;18.60;91.70;;;;;;5054200;28;20699;-72
2022/07/06 02:38:00;;;;;;;6.40;3.60;;;18.60;92.10;;;;;;5051907;28;20178;-73
2022/07/06 02:40:26;;;;;;;3.87;3.57;;;18.60;92.10;;;;;;5054051;28;20174;-72
2022/07/06 02:42:52;;;;;;;4.67;4.40;;;18.60;91.80;;;;;;5053832;28;20170;-72
2022/07/06 02:45:17;;;;;;;4.57;4.27;;;18.60;91.60;;;;;;5052185;28;20899;-72
2022/07/06 02:47:43;;;;;;;4.33;4.00;;;18.50;91.50;;;;;;5052919;28;20190;-72
2022/07/06 02:50:09;;;;;;;4.10;3.80;;;18.50;91.60;;;;;;5052115;28;20208;-72
2022/07/06 02:52:35;;;;;;;3.97;3.57;;;18.50;91.50;;;;;;5035673;28;20188;-72
2022/07/06 02:55:00;;;;;;;3.83;3.50;;;18.50;91.60;;;;;;5052541;28;20181;-75
2022/07/06 02:57:26;;;;;;;4.17;3.90;;;18.50;91.60;;;;;;5052668;28;20192;-72
2022/07/06 02:59:52;;;;;;;3.60;3.40;;;18.50;91.40;;;;;;5054024;28;20529;-72
2022/07/06 03:02:18;;;;;;;3.73;3.40;;;18.50;91.50;;;;;;5053289;28;20460;-72
2022/07/06 03:04:43;;;;;;;4.17;3.77;;;18.50;91.60;;;;;;5035994;28;20170;-72
2022/07/06 03:07:09;;;;;;;3.30;3.10;;;18.60;91.90;;;;;;5033973;28;20629;-72
2022/07/06 03:09:35;;;;;;;3.53;3.33;;;18.60;91.80;;;;;;5053911;28;20178;-72
2022/07/06 03:12:01;;;;;;;3.67;3.47;;;18.60;91.60;;;;;;5032825;28;20192;-72
2022/07/06 03:14:27;;;;;;;5.93;4.40;;;18.50;91.70;;;;;;5051838;28;20243;-72
2022/07/06 03:16:53;;;;;;;4.00;3.63;;;18.50;91.60;;;;;;5030280;28;20432;-72
2022/07/06 03:19:19;;;;;;;4.40;4.10;;;18.50;91.60;;;;;;5050844;28;20432;-72
2022/07/06 03:21:46;;;;;;;3.97;3.67;;;18.50;91.40;;;;;;5053485;28;20456;-73
2022/07/06 03:24:12;;;;;;;6.47;3.73;;;18.40;91.40;;;;;;5047215;28;20428;-72
2022/07/06 03:26:37;;;;;;;4.10;3.73;;;18.40;91.60;;;;;;5048641;28;20431;-72
2022/07/06 03:29:03;;;;;;;3.50;3.30;;;18.40;91.60;;;;;;5051724;28;20638;-73
2022/07/06 03:31:29;;;;;;;4.70;4.40;;;18.40;91.60;;;;;;5051152;28;20185;-75
2022/07/06 03:33:55;;;;;;;4.30;4.00;;;18.30;91.70;;;;;;5051561;28;20616;-76
2022/07/06 03:36:20;;;;;;;4.90;4.50;;;18.30;91.80;;;;;;5032307;28;20891;-75
2022/07/06 03:38:46;;;;;;;4.70;4.40;;;18.20;92.40;;;;;;5050601;28;20216;-74
2022/07/06 03:41:12;;;;;;;3.00;2.80;;;18.10;92.30;;;;;;5049348;28;20202;-73
2022/07/06 03:43:38;;;;;;;3.40;3.30;;;18.10;92.50;;;;;;5049392;28;20731;-73
2022/07/06 03:46:03;;;;;;;6.33;5.83;;;18.00;92.40;;;;;;5046300;28;20189;-73
2022/07/06 03:48:29;;;;;;;4.57;4.27;;;18.00;92.70;;;;;;5053009;28;20259;-73
2022/07/06 03:50:55;;;;;;;3.93;3.60;;;18.00;92.90;;;;;;5053140;28;20186;-73
2022/07/06 03:53:21;;;;;;;4.33;3.60;;;18.00;92.90;;;;;;5052346;28;20663;-73
2022/07/06 03:56:27;;;;;;;4.23;3.93;;;18.00;93.10;;;;;;5052991;28;20177;-74
2022/07/06 03:58:33;;;;;;;7.90;5.27;;;17.90;93.30;;;;;;5051031;28;20430;-74
2022/07/06 04:00:58;;;;;;;5.00;4.50;;;17.90;93.40;;;;;;5018461;28;20464;-76
2022/07/06 04:03:25;;;;;;;3.20;3.00;;;17.90;93.50;;;;;;5051817;28;20458;-76
2022/07/06 04:05:51;;;;;;;4.20;3.90;;;17.90;93.60;;;;;;5017580;28;20197;-77
2022/07/06 04:08:16;;;;;;;4.87;4.50;;;18.00;93.80;;;;;;5051523;28;20904;-76
2022/07/06 04:10:42;;;;;;;4.60;4.20;;;18.00;93.90;;;;;;5052471;28;20174;-76
2022/07/06 04:13:08;;;;;;;4.77;4.37;;;18.10;93.50;;;;;;5052064;28;20231;-77
2022/07/06 04:15:33;;;;;;;7.50;7.10;;;18.00;93.30;;;;;;5034409;28;20625;-80
2022/07/06 04:17:59;;;;;;;7.97;7.60;;;18.10;93.50;;;;;;5048964;28;20243;-76
2022/07/06 04:20:25;;;;;;;4.50;4.10;;;18.10;93.50;;;;;;5050791;28;20229;-77
2022/07/06 04:22:51;;;;;;;6.60;6.20;;;18.10;93.40;;;;;;5033866;28;20190;-77
2022/07/06 04:25:18;;;;;;;6.40;6.10;;;18.10;93.40;;;;;;5050201;28;20424;-77
2022/07/06 04:27:44;;;;;;;4.77;4.37;;;18.10;94.10;;;;;;5052340;28;20750;-75
2022/07/06 04:30:10;;;;;;;5.60;4.40;;;18.10;93.80;;;;;;5049582;28;20428;-76
2022/07/06 04:32:36;;;;;;;6.03;5.63;;;18.10;93.70;;;;;;5052474;28;20888;-77
2022/07/06 04:35:03;;;;;;;6.90;6.30;;;18.20;96.60;;;;;;5051943;28;20411;-80
2022/07/06 04:37:28;;;;;;;4.00;3.70;;;18.40;99.20;;;;;;5050974;28;20431;-72
2022/07/06 04:39:54;;;;;;;3.87;3.57;;;18.70;97.30;;;;;;5051087;28;20915;-72
2022/07/06 04:42:20;;;;;;;6.20;5.80;;;19.10;98.00;;;;;;5051449;28;20205;-72
2022/07/06 04:44:45;;;;;;;4.77;4.37;;;19.30;95.50;;;;;;5031582;28;20186;-71
2022/07/06 04:47:12;;;;;;;7.73;4.80;;;19.60;94.90;;;;;;5048835;28;20181;-72
2022/07/06 04:49:38;;;;;;;8.23;7.63;;;19.80;93.90;;;;;;5032458;28;20186;-72
2022/07/06 04:52:04;;;;;;;4.47;4.07;;;20.00;92.30;;;;;;5051564;28;20431;-74
2022/07/06 04:54:30;;;;;;;4.23;3.80;;;20.10;92.20;;;;;;5052183;28;20412;-73
2022/07/06 04:56:56;;;;;;;3.80;3.40;;;20.30;91.90;;;;;;5052239;28;20895;-72
2022/07/06 04:59:22;;;;;;;3.20;2.90;;;20.40;91.70;;;;;;5033024;28;20651;-73
2022/07/06 05:01:47;;;;;;;6.53;5.90;;;20.50;91.50;;;;;;5032354;28;20230;-72
2022/07/06 05:04:13;;;;;;;9.03;8.20;;;20.60;91.00;;;;;;5049690;28;20189;-72
2022/07/06 05:06:39;;;;;;;4.40;4.10;;;20.60;93.80;;;;;;5051819;28;20188;-72
2022/07/06 05:09:05;;;;;;;6.63;6.33;;;20.60;91.70;;;;;;5051546;28;20536;-79
2022/07/06 05:11:31;;;;;;;4.20;3.90;;;20.50;89.50;;;;;;5049275;28;20511;-73
2022/07/06 05:13:57;;;;;;;3.27;3.00;;;20.50;93.90;;;;;;5049348;28;20439;-72
2022/07/06 05:16:23;;;;;;;5.00;3.80;;;20.50;94.90;;;;;;5051375;28;20404;-70
2022/07/06 05:18:49;;;;;;;17.50;10.40;;;20.60;93.90;;;;;;5048033;28;20633;-70
2022/07/06 05:21:15;;;;;;;6.50;5.97;;;20.70;92.70;;;;;;5052820;28;20987;-71
2022/07/06 05:23:41;;;;;;;4.90;4.50;;;20.70;91.00;;;;;;5055387;28;20417;-70
2022/07/06 05:26:06;;;;;;;59.93;44.97;;;20.80;90.50;;;;;;5052430;28;20443;-71
2022/07/06 05:28:32;;;;;;;121.80;89.53;;;20.90;94.40;;;;;;5054951;28;20177;-70
2022/07/06 05:30:58;;;;;;;16.90;12.20;;;21.00;92.70;;;;;;5055497;28;20623;-70
2022/07/06 05:33:24;;;;;;;7.93;7.33;;;21.20;94.60;;;;;;5051163;28;20182;-71
2022/07/06 05:35:50;;;;;;;8.73;6.73;;;21.40;93.80;;;;;;5055292;28;20421;-70
2022/07/06 05:38:16;;;;;;;35.33;21.63;;;21.50;93.30;;;;;;5054552;28;20174;-70
2022/07/06 05:40:42;;;;;;;21.57;16.47;;;21.60;93.60;;;;;;5037315;28;20180;-70
2022/07/06 05:43:08;;;;;;;7.53;6.20;;;21.80;92.90;;;;;;5054535;28;20412;-71
2022/07/06 05:45:33;;;;;;;6.90;6.30;;;21.80;93.90;;;;;;5050668;28;20203;-69
2022/07/06 05:50:44;;;;;;;8.73;4.80;;;21.70;85.70;;;;;;5053913;28;20295;-74
2022/07/06 05:53:09;;;;;;;5.10;3.90;;;21.40;84.30;;;;;;5053337;28;20511;-77
2022/07/06 05:55:35;;;;;;;5.53;4.00;;;21.10;85.10;;;;;;5036677;28;20200;-74
2022/07/06 05:58:01;;;;;;;4.00;3.60;;;20.80;86.30;;;;;;5054768;28;20178;-74
2022/07/06 06:00:27;;;;;;;7.27;4.80;;;20.50;88.30;;;;;;5036006;28;20179;-74
2022/07/06 06:02:53;;;;;;;4.60;4.20;;;20.10;89.20;;;;;;5054626;28;20626;-74
2022/07/06 06:05:19;;;;;;;4.87;4.37;;;19.90;90.00;;;;;;5053502;28;20900;-74
2022/07/06 06:07:47;;;;;;;3.67;3.33;;;19.70;90.60;;;;;;5054642;28;20416;-74
2022/07/06 06:10:14;;;;;;;4.53;3.63;;;19.50;91.30;;;;;;5053875;28;20911;-75
2022/07/06 06:12:41;;;;;;;5.83;5.43;;;19.30;91.80;;;;;;5054298;28;20451;-74
2022/07/06 06:15:08;;;;;;;4.00;3.70;;;19.10;92.60;;;;;;5052679;28;20428;-74
2022/07/06 06:17:35;;;;;;;6.03;5.33;;;19.10;92.70;;;;;;5036070;28;20462;-74
2022/07/06 06:20:00;;;;;;;4.77;4.30;;;19.00;92.70;;;;;;5053900;28;20935;-74
2022/07/06 06:22:26;;;;;;;4.33;3.90;;;18.90;92.60;;;;;;5053436;28;20463;-74
2022/07/06 06:24:52;;;;;;;5.30;4.03;;;18.90;92.80;;;;;;5054290;28;20177;-74
2022/07/06 06:27:18;;;;;;;4.83;4.33;;;18.80;93.00;;;;;;5053280;28;20516;-74
2022/07/06 06:29:44;;;;;;;7.77;7.37;;;18.70;93.00;;;;;;5054004;28;20880;-74
2022/07/06 06:32:13;;;;;;;4.57;4.17;;;18.70;93.60;;;;;;5053781;28;20412;-77
2022/07/06 06:34:39;;;;;;;3.83;3.43;;;18.70;93.60;;;;;;5036473;28;20496;-74
2022/07/06 06:37:05;;;;;;;3.70;3.40;;;18.70;93.90;;;;;;5054046;28;20417;-73
2022/07/06 06:39:32;;;;;;;5.63;5.33;;;18.70;93.90;;;;;;5052977;28;20409;-74
2022/07/06 06:41:58;;;;;;;5.43;4.93;;;18.70;94.30;;;;;;5053867;28;20447;-74
2022/07/06 06:44:23;;;;;;;4.43;4.13;;;18.70;94.40;;;;;;5051709;28;20467;-74
2022/07/06 06:46:51;;;;;;;4.50;4.20;;;18.60;93.80;;;;;;5053559;28;20602;-74
2022/07/06 06:49:17;;;;;;;6.73;6.03;;;18.60;93.80;;;;;;5053113;28;20252;-74
2022/07/06 06:51:44;;;;;;;3.70;3.50;;;18.70;94.00;;;;;;5054020;28;20507;-74
2022/07/06 06:54:10;;;;;;;3.47;3.17;;;18.70;93.60;;;;;;5053753;28;20756;-74
2022/07/06 06:56:36;;;;;;;5.97;4.07;;;18.70;93.10;;;;;;5053120;28;20467;-74
2022/07/06 06:59:01;;;;;;;4.50;4.20;;;18.80;93.40;;;;;;5035572;28;20412;-74
2022/07/06 07:01:27;;;;;;;5.67;2.77;;;18.90;93.70;;;;;;5052773;28;20525;-74
2022/07/06 07:03:55;;;;;;;3.17;2.90;;;18.90;93.80;;;;;;5053453;28;20170;-74
2022/07/06 07:06:21;;;;;;;4.13;3.83;;;19.00;93.80;;;;;;5052795;28;20408;-74
2022/07/06 07:08:47;;;;;;;3.30;3.00;;;19.10;93.50;;;;;;5053092;28;20930;-75
2022/07/06 07:11:13;;;;;;;3.20;2.90;;;19.10;92.90;;;;;;5052817;28;20423;-77
2022/07/06 07:13:39;;;;;;;3.80;3.60;;;19.10;92.90;;;;;;5052818;28;20466;-77
2022/07/06 07:16:05;;;;;;;3.03;2.70;;;19.20;93.00;;;;;;5035141;28;20436;-74
2022/07/06 07:18:31;;;;;;;2.57;2.43;;;19.30;92.10;;;;;;5034585;28;20207;-74
2022/07/06 07:20:56;;;;;;;2.50;2.30;;;19.40;92.20;;;;;;5052625;28;20233;-74
2022/07/06 07:23:22;;;;;;;6.00;3.40;;;19.40;92.00;;;;;;5052541;28;20243;-74
2022/07/06 07:25:48;;;;;;;4.13;3.80;;;19.50;92.10;;;;;;5052701;28;20222;-74
2022/07/06 07:28:14;;;;;;;3.13;2.83;;;19.50;91.80;;;;;;5035030;28;20545;-77
2022/07/06 07:30:40;;;;;;;5.57;3.20;;;19.60;91.90;;;;;;5052802;28;20178;-74
2022/07/06 07:33:06;;;;;;;4.60;4.30;;;19.60;91.80;;;;;;5053041;28;20697;-74
2022/07/06 07:35:32;;;;;;;5.53;3.80;;;19.60;92.10;;;;;;5034222;28;20415;-74
2022/07/06 07:37:58;;;;;;;3.30;3.10;;;19.60;91.30;;;;;;5053218;28;20470;-74
2022/07/06 07:40:24;;;;;;;4.10;3.80;;;19.50;91.40;;;;;;5052080;28;20416;-74
2022/07/06 07:42:49;;;;;;;5.00;3.53;;;19.50;91.30;;;;;;5051609;28;20606;-75
2022/07/06 07:45:15;;;;;;;2.87;2.67;;;19.50;91.80;;;;;;5050232;28;20185;-75
2022/07/06 07:47:41;;;;;;;3.60;3.30;;;19.50;91.60;;;;;;5053196;28;20174;-74
2022/07/06 07:50:08;;;;;;;3.53;2.60;;;19.50;91.60;;;;;;5018134;28;20203;-74
2022/07/06 07:52:34;;;;;;;3.23;3.03;;;19.40;91.00;;;;;;5051778;28;20435;-74
2022/07/06 07:55:00;;;;;;;4.17;2.60;;;19.30;91.20;;;;;;5034909;28;20409;-75
2022/07/06 07:57:25;;;;;;;3.30;3.00;;;19.30;90.90;;;;;;5051778;28;20185;-75
2022/07/06 07:59:51;;;;;;;2.70;2.60;;;19.30;90.90;;;;;;5034729;28;20491;-75
2022/07/06 08:02:17;;;;;;;2.90;2.80;;;19.20;90.80;;;;;;5051851;28;20255;-78
2022/07/06 08:04:42;;;;;;;2.80;2.60;;;19.10;90.90;;;;;;5052493;28;20220;-75
2022/07/06 08:07:08;;;;;;;2.20;2.10;;;19.10;90.70;;;;;;5052260;28;20183;-75
2022/07/06 08:09:34;;;;;;;3.27;2.63;;;19.20;91.50;;;;;;5051638;28;20973;-76
2022/07/06 08:12:00;;;;;;;3.80;3.37;;;19.20;91.40;;;;;;5034586;28;20676;-75
2022/07/06 08:14:26;;;;;;;2.80;2.70;;;19.20;91.50;;;;;;5050160;28;20231;-76
2022/07/06 08:16:52;;;;;;;3.30;3.10;;;19.20;90.90;;;;;;5034717;28;20266;-75
2022/07/06 08:19:18;;;;;;;3.97;3.30;;;19.30;91.00;;;;;;5049910;28;20432;-78
2022/07/06 08:21:44;;;;;;;3.13;2.63;;;19.30;90.40;;;;;;5000298;28;20225;-75
2022/07/06 08:24:10;;;;;;;4.30;3.90;;;19.40;91.10;;;;;;5052548;28;20231;-76
2022/07/06 08:26:36;;;;;;;3.73;3.53;;;19.40;90.00;;;;;;5051360;28;20423;-75
2022/07/06 08:29:03;;;;;;;2.93;2.30;;;19.40;90.50;;;;;;5052131;28;20451;-75
2022/07/06 08:31:29;;;;;;;3.27;2.60;;;19.40;90.40;;;;;;5051234;28;20412;-76
2022/07/06 08:33:55;;;;;;;3.20;2.90;;;19.40;90.30;;;;;;5052028;28;20419;-75
2022/07/06 08:36:21;;;;;;;2.60;2.40;;;19.40;90.50;;;;;;5051305;28;20412;-76
2022/07/06 08:38:48;;;;;;;2.70;2.30;;;19.50;91.00;;;;;;5052195;28;20837;-75
2022/07/06 08:41:15;;;;;;;2.53;2.33;;;19.60;90.30;;;;;;5051921;28;20475;-75
2022/07/06 08:43:41;;;;;;;2.70;2.60;;;19.60;89.90;;;;;;5033398;28;20416;-76
2022/07/06 08:46:08;;;;;;;2.60;2.40;;;19.70;89.50;;;;;;5051927;28;20416;-75
2022/07/06 08:48:38;;;;;;;2.90;2.70;;;19.70;88.60;;;;;;5032851;28;20200;-76
2022/07/06 08:51:05;;;;;;;2.77;2.57;;;19.80;89.30;;;;;;5031799;28;20429;-76
2022/07/06 08:53:31;;;;;;;3.50;2.10;;;19.90;89.20;;;;;;5048858;28;20928;-76
2022/07/06 08:55:57;;;;;;;3.67;2.10;;;19.90;88.30;;;;;;5056025;28;20439;-76
2022/07/06 08:58:27;;;;;;;2.90;2.60;;;19.90;87.30;;;;;;5040003;28;20923;-76
2022/07/06 09:00:56;;;;;;;2.63;2.43;;;20.00;89.20;;;;;;5056250;28;20467;-76
2022/07/06 09:03:23;;;;;;;2.77;2.53;;;20.20;90.10;;;;;;5057756;28;20420;-77
2022/07/06 09:05:51;;;;;;;3.10;2.90;;;20.30;87.80;;;;;;5056598;28;20765;-76
2022/07/06 09:08:19;;;;;;;3.30;2.50;;;20.40;87.60;;;;;;5055795;28;20408;-76
2022/07/06 09:10:45;;;;;;;2.70;2.47;;;20.40;85.90;;;;;;5037527;28;20404;-76
2022/07/06 09:13:10;;;;;;;4.30;2.67;;;20.40;86.10;;;;;;5055667;28;20419;-75
2022/07/06 09:15:40;;;;;;;3.67;3.00;;;20.30;84.60;;;;;;5054622;28;20173;-76
2022/07/06 09:18:07;;;;;;;3.07;2.87;;;20.10;85.20;;;;;;5055916;28;20154;-76
2022/07/06 09:20:34;;;;;;;3.03;2.50;;;20.00;86.30;;;;;;5048593;28;20474;-77
2022/07/06 09:23:05;;;;;;;2.80;2.60;;;19.80;84.80;;;;;;5050898;28;20788;-75
2022/07/06 09:25:32;;;;;;;2.40;2.30;;;19.80;84.30;;;;;;5054751;28;20414;-76
2022/07/06 09:27:58;;;;;;;2.17;2.00;;;19.70;85.10;;;;;;5055489;28;20419;-76
2022/07/06 09:30:26;;;;;;;2.50;2.40;;;19.70;85.70;;;;;;5054984;28;20420;-76
2022/07/06 09:32:57;;;;;;;4.40;3.43;;;19.70;85.80;;;;;;5037113;28;20408;-76
2022/07/06 09:35:49;;;;;;;2.40;2.30;;;19.60;84.70;;;;;;5052930;28;20435;-79
2022/07/06 09:38:15;;;;;;;2.70;2.50;;;19.60;85.50;;;;;;5031383;28;20444;-75
2022/07/06 09:40:43;;;;;;;3.23;2.93;;;19.70;85.90;;;;;;5036178;28;20462;-75
2022/07/06 09:43:09;;;;;;;4.10;2.80;;;19.70;86.00;;;;;;5037713;28;20216;-75
2022/07/06 09:45:39;;;;;;;3.23;3.03;;;19.80;85.60;;;;;;5054052;28;20455;-75
2022/07/06 09:48:10;;;;;;;3.57;3.23;;;19.90;86.30;;;;;;5054926;28;20168;-76
2022/07/06 09:50:40;;;;;;;3.83;2.67;;;20.00;86.10;;;;;;5036312;28;20522;-76
2022/07/06 09:53:07;;;;;;;3.40;3.10;;;20.20;86.30;;;;;;5053341;28;20432;-76
2022/07/06 09:55:33;;;;;;;2.63;2.53;;;20.40;84.50;;;;;;5053871;28;20455;-75
2022/07/06 09:57:59;;;;;;;2.20;2.10;;;20.70;84.50;;;;;;5036735;28;20424;-75
2022/07/06 10:00:24;;;;;;;4.10;2.30;;;20.90;83.40;;;;;;5054385;28;20415;-76
2022/07/06 10:02:51;;;;;;;1.90;1.80;;;21.10;81.10;;;;;;5037303;28;20280;-76
2022/07/06 10:05:18;;;;;;;3.53;2.70;;;21.30;78.30;;;;;;5036486;28;20420;-76
2022/07/06 10:07:49;;;;;;;3.17;3.07;;;21.50;77.30;;;;;;5036120;28;20412;-76
2022/07/06 10:10:15;;;;;;;2.60;2.40;;;21.60;79.80;;;;;;5036424;28;20416;-76
2022/07/06 10:12:44;;;;;;;2.87;2.70;;;21.80;77.80;;;;;;5053748;28;20761;-76
2022/07/06 10:15:11;;;;;;;2.40;2.30;;;21.80;76.70;;;;;;5054632;28;20408;-76
2022/07/06 10:17:38;;;;;;;3.37;2.97;;;21.90;77.10;;;;;;5053916;28;20415;-75
2022/07/06 10:20:06;;;;;;;2.17;2.07;;;21.90;76.70;;;;;;5046388;28;20459;-75
2022/07/06 10:22:34;;;;;;;2.30;2.20;;;21.90;75.50;;;;;;5072601;28;20455;-76
2022/07/06 10:25:01;;;;;;;3.13;2.93;;;21.90;77.90;;;;;;5073498;28;20435;-75
2022/07/06 10:27:28;;;;;;;2.10;1.70;;;22.00;75.30;;;;;;5072666;28;20795;-77
2022/07/06 10:29:54;;;;;;;6.20;2.00;;;22.00;75.30;;;;;;5072944;28;20426;-76
2022/07/06 10:32:22;;;;;;;2.50;2.40;;;22.00;75.80;;;;;;5072770;28;20423;-75
2022/07/06 10:34:48;;;;;;;2.40;2.30;;;22.00;79.50;;;;;;5072196;28;20173;-75
2022/07/06 10:37:25;;;;;;;2.93;2.73;;;22.10;78.00;;;;;;5072816;28;20411;-75
2022/07/06 10:42:43;;;;;;;3.80;3.50;;;22.40;77.80;;;;;;5072947;28;20450;-76
2022/07/06 10:45:11;;;;;;;4.40;3.37;;;22.80;78.90;;;;;;5072834;28;20554;-76
2022/07/06 10:47:37;;;;;;;3.97;3.53;;;23.10;75.10;;;;;;5071710;28;20495;-76
2022/07/06 10:50:04;;;;;;;2.93;2.73;;;23.20;72.10;;;;;;5071854;28;20438;-76
2022/07/06 10:52:50;;;;;;;2.90;2.70;;;23.20;69.00;;;;;;5072928;28;20421;-76
2022/07/06 10:55:29;;;;;;;3.63;3.43;;;23.20;69.50;;;;;;5072664;28;20408;-76
2022/07/06 10:57:55;;;;;;;2.63;2.40;;;23.00;70.10;;;;;;5072452;28;20426;-76
2022/07/06 11:00:20;;;;;;;10.10;9.10;;;22.80;69.90;;;;;;5055669;28;20780;-76
2022/07/06 11:02:46;;;;;;;3.80;3.30;;;22.60;70.70;;;;;;5053578;28;20208;-76
2022/07/06 11:05:41;;;;;;;4.43;3.77;;;22.40;71.90;;;;;;5055726;28;20211;-74
2022/07/06 11:08:10;;;;;;;2.70;2.50;;;22.20;69.80;;;;;;5073629;28;20404;-75
2022/07/06 11:10:48;;;;;;;4.43;4.03;;;22.10;71.80;;;;;;5072298;28;20415;-76
2022/07/06 11:13:27;;;;;;;3.70;3.37;;;22.10;71.70;;;;;;5072008;28;20403;-75
2022/07/06 11:16:03;;;;;;;2.40;2.30;;;22.10;73.90;;;;;;5054883;28;20419;-75
2022/07/06 11:18:40;;;;;;;3.67;3.40;;;22.10;74.00;;;;;;5071337;28;20402;-78
2022/07/06 11:21:31;;;;;;;2.40;2.30;;;22.20;72.40;;;;;;5057375;28;20475;-76
2022/07/06 11:23:58;;;;;;;3.20;2.90;;;22.30;72.00;;;;;;5035262;28;20500;-75
2022/07/06 11:26:24;;;;;;;3.53;3.33;;;22.60;74.30;;;;;;5035555;28;20416;-75
2022/07/06 11:28:51;;;;;;;2.47;2.37;;;22.80;72.50;;;;;;5052312;28;20412;-75
2022/07/06 11:31:17;;;;;;;2.83;2.73;;;23.10;70.80;;;;;;5034199;28;20420;-75
2022/07/06 11:33:47;;;;;;;3.03;2.93;;;23.30;69.10;;;;;;5052134;28;20462;-76
2022/07/06 11:36:22;;;;;;;3.03;2.73;;;23.40;67.90;;;;;;5035245;28;20424;-76
2022/07/06 11:38:49;;;;;;;3.83;3.63;;;23.50;66.90;;;;;;5034235;28;20481;-76
2022/07/06 11:41:16;;;;;;;3.20;3.00;;;23.40;67.50;;;;;;5033807;28;20889;-76
2022/07/06 11:43:45;;;;;;;2.57;2.37;;;23.30;65.70;;;;;;5034256;28;20400;-76
2022/07/06 11:46:30;;;;;;;2.50;2.40;;;23.20;67.00;;;;;;5052593;28;20412;-76
2022/07/06 11:48:58;;;;;;;3.00;2.40;;;23.10;66.50;;;;;;5052650;28;20397;-76
2022/07/06 11:51:26;;;;;;;2.70;2.50;;;23.00;66.60;;;;;;5052389;28;20431;-75
2022/07/06 11:53:55;;;;;;;2.93;2.83;;;22.90;66.00;;;;;;5034315;28;20419;-75
2022/07/06 11:56:25;;;;;;;3.37;3.10;;;22.80;66.30;;;;;;5052888;28;20839;-75
2022/07/06 11:58:53;;;;;;;3.10;2.80;;;22.80;69.10;;;;;;5052165;28;20415;-75
2022/07/06 12:01:19;;;;;;;2.40;2.30;;;22.60;68.20;;;;;;5052394;28;20452;-75
2022/07/06 12:03:45;;;;;;;1.83;1.73;;;22.70;69.50;;;;;;5051397;28;20412;-76
2022/07/06 12:06:18;;;;;;;2.50;2.40;;;22.70;68.90;;;;;;5052427;28;20973;-76
2022/07/06 12:08:49;;;;;;;2.77;2.27;;;22.80;68.70;;;;;;5033967;28;20952;-75
2022/07/06 12:11:23;;;;;;;2.70;2.50;;;22.80;69.70;;;;;;5050986;28;20439;-75
2022/07/06 12:13:51;;;;;;;2.67;2.50;;;22.80;73.20;;;;;;5051787;28;20469;-75
2022/07/06 12:16:17;;;;;;;2.73;2.53;;;23.00;71.50;;;;;;5032727;28;20428;-76
2022/07/06 12:18:47;;;;;;;3.30;3.10;;;23.20;69.60;;;;;;5033586;28;20412;-76
2022/07/06 12:21:19;;;;;;;2.23;2.10;;;23.50;71.40;;;;;;5052313;28;20807;-76
2022/07/06 12:23:46;;;;;;;3.17;2.97;;;23.60;66.70;;;;;;5033658;28;20550;-75
2022/07/06 12:26:14;;;;;;;5.90;5.50;;;23.60;64.00;;;;;;5052205;28;20510;-76
2022/07/06 12:28:41;;;;;;;4.70;4.50;;;23.60;62.90;;;;;;5051514;28;20458;-75
2022/07/06 12:31:07;;;;;;;1.97;1.73;;;23.70;63.10;;;;;;5035027;28;20797;-75
2022/07/06 12:33:33;;;;;;;3.60;3.40;;;23.70;65.10;;;;;;5034143;28;20423;-77
2022/07/06 12:36:15;;;;;;;2.00;1.90;;;23.60;63.90;;;;;;5051887;28;20416;-76
2022/07/06 12:38:46;;;;;;;4.40;4.20;;;23.60;63.00;;;;;;5033506;28;20629;-76
2022/07/06 12:41:28;;;;;;;2.47;2.30;;;23.60;64.20;;;;;;5050579;28;20475;-76
2022/07/06 12:44:04;;;;;;;4.43;4.00;;;23.50;62.70;;;;;;5033528;28;20408;-76
2022/07/06 12:46:38;;;;;;;4.10;2.67;;;23.40;64.20;;;;;;5017339;28;20430;-76
2022/07/06 12:49:13;;;;;;;4.10;3.90;;;23.20;64.60;;;;;;5034261;28;20420;-76
2022/07/06 12:52:11;;;;;;;11.37;10.17;;;23.20;64.50;;;;;;5050988;28;20903;-77